createdAt,value
2022-11-17T06:16:06.540Z,4.53
2022-11-17T06:18:38.185Z,9.40
2022-11-17T06:21:05.625Z,4.85
2022-11-17T06:23:33.747Z,2.60
2022-11-17T06:26:05.295Z,2.28
2022-11-17T06:28:34.204Z,2.33
2022-11-17T06:31:01.482Z,4.80
2022-11-17T06:33:30.830Z,4.43
2022-11-17T06:36:00.450Z,5.72
2022-11-17T06:38:27.582Z,6.35
2022-11-17T06:40:54.451Z,4.50
2022-11-17T06:43:21.461Z,1.70
2022-11-17T06:45:48.428Z,3.97
2022-11-17T06:48:16.968Z,4.40
2022-11-17T06:50:44.224Z,2.75
2022-11-17T06:53:12.445Z,6.32
2022-11-17T06:55:39.223Z,3.33
2022-11-17T06:58:08.112Z,5.05
2022-11-17T07:00:36.303Z,2.78
2022-11-17T07:03:05.731Z,3.50
2022-11-17T07:05:33.875Z,3.05
2022-11-17T07:08:02.892Z,3.08
2022-11-17T07:10:30.655Z,2.83
2022-11-17T07:12:57.351Z,3.25
2022-11-17T07:15:25.478Z,3.90
2022-11-17T07:17:52.481Z,2.63
2022-11-17T07:20:19.420Z,3.40
2022-11-17T07:22:46.088Z,2.28
2022-11-17T07:25:12.907Z,2.33
2022-11-17T07:27:39.627Z,2.67
2022-11-17T07:30:07.542Z,2.08
2022-11-17T07:32:34.935Z,3.40
2022-11-17T07:35:05.921Z,2.55
2022-11-17T07:40:00.898Z,4.15
2022-11-17T07:42:27.570Z,3.35
2022-11-17T07:44:54.597Z,1.73
2022-11-17T07:47:21.293Z,4.57
2022-11-17T07:49:47.979Z,3.28
2022-11-17T07:52:14.581Z,2.35
2022-11-17T07:54:41.194Z,2.03
2022-11-17T07:57:07.797Z,1.73
2022-11-17T07:59:34.414Z,1.85
2022-11-17T08:02:01.084Z,1.75
2022-11-17T08:04:27.701Z,4.28
2022-11-17T08:06:54.388Z,1.75
2022-11-17T08:09:21.024Z,1.90
2022-11-17T08:11:47.877Z,1.75
2022-11-17T08:14:14.504Z,1.70
2022-11-17T08:16:41.183Z,3.28
2022-11-17T08:19:07.943Z,3.45
2022-11-17T08:21:36.895Z,2.08
2022-11-17T08:24:03.746Z,1.13
2022-11-17T08:26:30.417Z,0.98
2022-11-17T08:28:59.061Z,1.38
2022-11-17T08:31:25.793Z,1.52
2022-11-17T08:33:52.417Z,0.88
2022-11-17T08:36:19.121Z,1.05
2022-11-17T08:38:45.745Z,0.80
2022-11-17T08:41:12.509Z,1.35
2022-11-17T08:43:39.159Z,1.58
2022-11-17T08:46:05.859Z,2.17
2022-11-17T08:48:33.306Z,2.03
2022-11-17T08:51:05.702Z,1.60
2022-11-17T08:53:32.512Z,1.73
2022-11-17T08:55:59.498Z,2.40
2022-11-17T08:58:26.400Z,1.17
2022-11-17T09:00:53.256Z,1.30
2022-11-17T09:03:19.959Z,0.90
2022-11-17T09:05:49.595Z,2.83
2022-11-17T09:08:44.036Z,1.58
2022-11-17T09:11:07.963Z,2.58
2022-11-17T09:13:35.634Z,1.35
2022-11-17T09:16:07.805Z,1.20
2022-11-17T09:18:36.933Z,2.38
2022-11-17T09:21:08.715Z,1.08
2022-11-17T09:23:35.974Z,1.00
2022-11-17T09:26:11.905Z,4.30
2022-11-17T09:28:39.367Z,1.35
2022-11-17T09:31:18.091Z,1.35
2022-11-17T09:33:44.995Z,1.23
2022-11-17T09:36:13.773Z,2.58
2022-11-17T09:38:41.301Z,0.85
2022-11-17T09:41:17.039Z,1.50
2022-11-17T09:43:56.430Z,1.33
2022-11-17T09:46:33.582Z,1.45
2022-11-17T09:49:11.496Z,1.10
2022-11-17T09:51:42.047Z,2.45
2022-11-17T09:54:20.291Z,0.88
2022-11-17T09:56:47.821Z,2.40
2022-11-17T09:59:19.466Z,1.50
2022-11-17T10:01:46.298Z,1.60
2022-11-17T10:04:16.662Z,1.05
2022-11-17T10:06:46.412Z,1.02
2022-11-17T10:09:29.821Z,0.90
2022-11-17T10:12:12.997Z,2.33
2022-11-17T10:14:41.025Z,0.70
2022-11-17T10:17:09.171Z,0.70
2022-11-17T10:19:38.180Z,4.20
2022-11-17T10:22:05.264Z,0.80
2022-11-17T10:24:36.711Z,1.90
2022-11-17T10:27:06.941Z,1.33
2022-11-17T10:29:33.696Z,1.60
2022-11-17T10:32:03.299Z,0.70
2022-11-17T10:34:40.732Z,1.30
2022-11-17T10:37:13.866Z,1.10
2022-11-17T10:39:42.498Z,1.52
2022-11-17T10:42:22.969Z,1.35
2022-11-17T10:44:56.197Z,1.33
2022-11-17T10:47:30.548Z,0.60
2022-11-17T10:50:19.277Z,1.33
2022-11-17T10:52:46.989Z,0.95
2022-11-17T10:55:34.130Z,2.05
2022-11-17T10:58:26.591Z,1.23
2022-11-17T11:03:35.123Z,1.17
2022-11-17T11:06:06.487Z,1.05
2022-11-17T11:09:05.212Z,0.60
2022-11-17T11:11:44.917Z,0.63
2022-11-17T11:14:19.934Z,1.67
2022-11-17T11:16:49.199Z,1.55
2022-11-17T11:19:17.886Z,2.28
2022-11-17T11:22:21.445Z,0.88
2022-11-17T11:25:02.540Z,0.60
2022-11-17T11:27:47.235Z,1.02
2022-11-17T11:30:17.359Z,0.60
2022-11-17T11:33:12.267Z,0.98
2022-11-17T11:35:48.049Z,0.80
2022-11-17T11:38:41.203Z,1.23
2022-11-17T11:41:35.523Z,1.40
2022-11-17T11:44:02.109Z,1.27
2022-11-17T11:46:41.517Z,1.15
2022-11-17T11:49:30.772Z,2.28
2022-11-17T11:51:57.809Z,1.17
2022-11-17T11:54:32.846Z,0.77
2022-11-17T11:57:01.058Z,0.93
2022-11-17T11:59:58.215Z,0.60
2022-11-17T12:02:51.391Z,0.73
2022-11-17T12:05:39.953Z,0.75
2022-11-17T12:08:15.492Z,0.65
2022-11-17T12:10:51.771Z,0.85
2022-11-17T12:13:21.128Z,0.68
2022-11-17T12:15:47.961Z,1.27
2022-11-17T12:18:17.250Z,1.40
2022-11-17T12:20:46.891Z,1.10
2022-11-17T12:23:46.840Z,0.75
2022-11-17T12:26:28.929Z,0.70
2022-11-17T12:29:20.460Z,0.73
2022-11-17T12:31:47.915Z,0.50
2022-11-17T12:34:31.891Z,0.95
2022-11-17T12:37:17.576Z,1.23
2022-11-17T12:40:04.227Z,1.00
2022-11-17T12:42:32.814Z,1.40
2022-11-17T12:45:03.819Z,0.70
2022-11-17T12:47:35.905Z,0.60
2022-11-17T12:50:18.035Z,1.02
2022-11-17T12:53:06.628Z,0.98
2022-11-17T12:55:42.213Z,1.67
2022-11-17T12:58:33.726Z,0.68
2022-11-17T13:01:17.430Z,0.67
2022-11-17T13:04:06.511Z,0.80
2022-11-17T13:06:36.262Z,0.50
2022-11-17T13:09:12.017Z,0.73
2022-11-17T13:11:38.718Z,1.15
2022-11-17T13:14:21.811Z,1.08
2022-11-17T13:16:50.182Z,0.75
2022-11-17T13:19:38.549Z,0.63
2022-11-17T13:22:16.398Z,0.98
2022-11-17T13:24:46.365Z,1.02
2022-11-17T13:27:23.331Z,0.77
2022-11-17T13:29:51.135Z,0.75
2022-11-17T13:32:21.282Z,1.27
2022-11-17T13:34:56.635Z,1.23
2022-11-17T13:37:26.368Z,0.57
2022-11-17T13:40:14.058Z,1.25
2022-11-17T13:42:41.205Z,0.88
2022-11-17T13:45:13.272Z,1.15
2022-11-17T13:50:31.365Z,2.05
2022-11-17T13:53:04.809Z,0.50
2022-11-17T13:55:32.025Z,1.00
2022-11-17T13:58:02.308Z,1.42
2022-11-17T14:00:31.016Z,2.28
2022-11-17T14:03:00.480Z,1.17
2022-11-17T14:05:28.704Z,0.70
2022-11-17T14:07:59.832Z,1.75
2022-11-17T14:10:31.778Z,1.83
2022-11-17T14:13:01.088Z,1.45
2022-11-17T14:15:30.908Z,2.95
2022-11-17T14:17:59.595Z,0.77
2022-11-17T14:20:26.223Z,0.98
2022-11-17T14:23:03.885Z,0.88
2022-11-17T14:25:33.103Z,2.30
2022-11-17T14:27:59.823Z,1.23
2022-11-17T14:30:26.601Z,0.68
2022-11-17T14:32:53.269Z,1.40
2022-11-17T14:35:19.956Z,1.23
2022-11-17T14:37:46.908Z,1.05
2022-11-17T14:40:16.432Z,0.95
2022-11-17T14:42:43.626Z,1.25
2022-11-17T14:45:15.327Z,1.38
2022-11-17T14:47:42.312Z,1.20
2022-11-17T14:50:13.795Z,0.85
2022-11-17T14:52:42.390Z,1.35
2022-11-17T14:55:10.882Z,1.20
2022-11-17T14:57:37.806Z,1.15
2022-11-17T15:00:07.418Z,1.33
2022-11-17T15:02:35.822Z,0.93
2022-11-17T15:05:03.172Z,0.95
2022-11-17T15:07:30.114Z,1.85
2022-11-17T15:09:57.570Z,1.35
2022-11-17T15:12:24.161Z,1.35
2022-11-17T15:14:51.000Z,0.60
2022-11-17T15:17:17.602Z,0.70
2022-11-17T15:19:45.212Z,5.32
2022-11-17T15:22:12.220Z,12.40
2022-11-17T15:24:38.825Z,4.63
2022-11-17T15:27:05.409Z,5.20
2022-11-17T15:29:32.088Z,9.48
2022-11-17T15:31:58.693Z,8.25
2022-11-17T15:34:25.367Z,7.40
2022-11-17T15:36:52.148Z,5.00
2022-11-17T15:39:19.117Z,8.27
2022-11-17T15:41:45.965Z,6.97
2022-11-17T15:44:12.875Z,5.78
2022-11-17T15:46:42.983Z,7.55
2022-11-17T15:49:13.951Z,6.47
2022-11-17T15:51:40.673Z,3.97
2022-11-17T15:54:08.328Z,5.07
2022-11-17T15:56:39.227Z,4.20
2022-11-17T15:59:06.484Z,2.80
2022-11-17T16:01:35.161Z,4.88
2022-11-17T16:04:02.902Z,3.92
2022-11-17T16:06:30.908Z,7.07
2022-11-17T16:08:57.769Z,3.95
2022-11-17T16:11:26.820Z,4.78
2022-11-17T16:13:54.781Z,6.63
2022-11-17T16:16:22.335Z,3.40
2022-11-17T16:18:49.042Z,4.93
2022-11-17T16:21:16.683Z,5.65
2022-11-17T16:23:47.540Z,3.25
2022-11-17T16:26:15.895Z,5.18
2022-11-17T16:28:42.615Z,3.67
2022-11-17T16:31:14.587Z,4.55
2022-11-17T16:33:46.500Z,4.95
2022-11-17T16:36:13.078Z,3.58
2022-11-17T16:38:49.846Z,4.65
2022-11-17T16:43:49.484Z,4.88
2022-11-17T16:46:22.418Z,3.20
2022-11-17T16:48:49.913Z,11.57
2022-11-17T16:51:18.204Z,10.20
2022-11-17T16:53:47.804Z,11.05
2022-11-17T16:56:15.172Z,8.00
2022-11-17T16:58:41.919Z,7.25
2022-11-17T17:01:13.323Z,8.48
2022-11-17T17:03:41.198Z,7.32
2022-11-17T17:06:14.103Z,6.50
2022-11-17T17:08:41.192Z,7.72
2022-11-17T17:11:13.225Z,8.40
2022-11-17T17:16:13.521Z,6.47
2022-11-17T17:18:41.004Z,13.20
2022-11-17T17:21:11.970Z,7.07
2022-11-17T17:23:38.809Z,8.32
2022-11-17T17:26:13.903Z,7.05
2022-11-17T17:28:43.709Z,7.60
2022-11-17T17:31:14.275Z,6.60
2022-11-17T17:33:44.133Z,6.28
2022-11-17T17:36:14.218Z,5.70
2022-11-17T17:38:41.170Z,7.75
2022-11-17T17:41:12.894Z,6.35
2022-11-17T17:43:40.444Z,4.05
2022-11-17T17:46:15.329Z,8.77
2022-11-17T17:48:44.480Z,8.13
2022-11-17T17:51:16.955Z,6.78
2022-11-17T17:53:43.776Z,7.00
2022-11-17T17:56:13.042Z,6.55
2022-11-17T17:58:41.111Z,4.75
2022-11-17T18:01:28.617Z,6.65
2022-11-17T18:04:01.171Z,8.18
2022-11-17T18:06:28.153Z,5.60
2022-11-17T18:08:54.772Z,6.22
2022-11-17T18:11:21.546Z,5.68
2022-11-17T18:13:51.144Z,5.25
2022-11-17T18:16:21.443Z,7.20
2022-11-17T18:18:48.339Z,7.00
2022-11-17T18:21:18.168Z,4.95
2022-11-17T18:23:45.372Z,7.47
2022-11-17T18:26:17.934Z,9.65
2022-11-17T18:28:52.451Z,5.55
2022-11-17T18:31:20.579Z,5.40
2022-11-17T18:33:57.604Z,5.40
2022-11-17T18:36:24.993Z,6.45
2022-11-17T18:38:52.734Z,5.25
2022-11-17T18:41:21.119Z,5.63
2022-11-17T18:43:48.284Z,4.05
2022-11-17T18:46:17.307Z,3.72
2022-11-17T18:48:46.438Z,4.65
2022-11-17T18:51:20.335Z,4.03
2022-11-17T18:53:51.461Z,5.00
2022-11-17T18:56:22.624Z,4.38
2022-11-17T18:58:49.830Z,3.77
2022-11-17T19:01:20.687Z,3.78
2022-11-17T19:03:52.370Z,4.75
2022-11-17T19:06:21.414Z,4.50
2022-11-17T19:08:48.420Z,3.72
2022-11-17T19:11:16.285Z,4.03
2022-11-17T19:13:43.967Z,7.53
2022-11-17T19:16:14.900Z,3.63
2022-11-17T19:18:42.677Z,4.03
2022-11-17T19:21:17.446Z,4.75
2022-11-17T19:23:51.051Z,3.60
2022-11-17T19:26:21.120Z,4.13
2022-11-17T19:28:48.321Z,6.75
2022-11-17T19:31:17.504Z,4.05
2022-11-17T19:33:45.764Z,6.70
2022-11-17T19:36:23.801Z,3.47
2022-11-17T19:38:51.844Z,3.60
2022-11-17T19:41:24.386Z,4.80
2022-11-17T19:43:59.484Z,6.85
2022-11-17T19:46:28.187Z,5.55
2022-11-17T19:48:58.414Z,6.40
2022-11-17T19:51:30.398Z,5.97
2022-11-17T19:54:00.956Z,3.78
2022-11-17T19:56:28.606Z,6.47
2022-11-17T19:58:55.727Z,3.83
2022-11-17T20:01:23.650Z,4.88
2022-11-17T20:03:50.868Z,4.70
2022-11-17T20:06:21.068Z,4.95
2022-11-17T20:08:48.387Z,4.53
2022-11-17T20:11:17.701Z,4.78
2022-11-17T20:13:44.407Z,4.20
2022-11-17T20:16:15.212Z,4.32
2022-11-17T20:18:42.926Z,2.90
2022-11-17T20:21:10.428Z,5.45
2022-11-17T20:23:38.723Z,3.70
2022-11-17T20:26:07.760Z,3.50
2022-11-17T20:28:36.405Z,4.10
2022-11-17T20:31:14.485Z,3.45
2022-11-17T20:33:42.692Z,3.17
2022-11-17T20:36:13.008Z,3.42
2022-11-17T20:38:39.898Z,5.20
2022-11-17T20:41:07.036Z,4.10
2022-11-17T20:43:34.974Z,4.78
2022-11-17T20:46:02.628Z,4.05
2022-11-17T20:48:30.232Z,3.42
2022-11-17T20:50:57.692Z,2.92
2022-11-17T20:53:24.637Z,4.40
2022-11-17T20:55:51.729Z,3.78
2022-11-17T20:58:18.363Z,4.10
2022-11-17T21:00:45.202Z,4.43
2022-11-17T21:03:11.923Z,4.22
2022-11-17T21:05:38.648Z,5.30
2022-11-17T21:08:05.856Z,8.00
2022-11-17T21:10:32.585Z,4.22
2022-11-17T21:12:59.769Z,6.20
2022-11-17T21:15:26.356Z,4.03
2022-11-17T21:18:11.697Z,6.50
2022-11-17T21:20:38.320Z,6.05
2022-11-17T21:23:04.952Z,3.97
2022-11-17T21:25:31.633Z,4.93
2022-11-17T21:27:58.405Z,6.10
2022-11-17T21:30:25.034Z,7.30
2022-11-17T21:32:51.650Z,11.10
2022-11-17T21:35:18.366Z,4.97
2022-11-17T21:37:45.043Z,6.22
2022-11-17T21:40:11.980Z,6.35
2022-11-17T21:42:38.712Z,10.38
2022-11-17T21:45:08.194Z,6.60
2022-11-17T21:47:34.814Z,6.97
2022-11-17T21:50:04.004Z,5.45
2022-11-17T21:52:30.703Z,8.02
2022-11-17T21:54:57.512Z,4.75
2022-11-17T21:57:24.178Z,3.72
2022-11-17T21:59:50.784Z,4.00
2022-11-17T22:02:18.872Z,4.97
2022-11-17T22:04:45.904Z,5.78
2022-11-17T22:07:12.555Z,3.95
2022-11-17T22:09:39.378Z,3.72
2022-11-17T22:12:06.197Z,3.38
2022-11-17T22:14:32.804Z,4.35
2022-11-17T22:17:00.617Z,4.07
2022-11-17T22:19:29.436Z,4.03
2022-11-17T22:21:56.115Z,4.72
2022-11-17T22:24:23.101Z,5.13
2022-11-17T22:26:51.540Z,4.60
2022-11-17T22:29:20.997Z,5.60
2022-11-17T22:31:48.638Z,3.90
2022-11-17T22:34:16.620Z,4.60
2022-11-17T22:36:43.429Z,3.38
2022-11-17T22:39:10.576Z,4.40
2022-11-17T22:41:39.514Z,3.47
2022-11-17T22:44:06.477Z,5.25
2022-11-17T22:46:34.872Z,2.85
2022-11-17T22:49:01.534Z,4.15
2022-11-17T22:51:46.936Z,4.55
2022-11-17T22:54:13.590Z,2.85
2022-11-17T22:56:40.293Z,2.87
2022-11-17T22:59:07.104Z,3.92
2022-11-17T23:01:33.891Z,3.42
2022-11-17T23:04:00.577Z,3.38
2022-11-17T23:06:27.355Z,3.90
2022-11-17T23:08:55.537Z,2.92
2022-11-17T23:11:36.471Z,2.60
2022-11-17T23:14:10.259Z,2.58
2022-11-17T23:16:37.848Z,2.50
2022-11-17T23:19:05.790Z,3.10
2022-11-17T23:21:32.498Z,2.97
2022-11-17T23:23:59.168Z,1.92
2022-11-17T23:26:27.044Z,1.70
2022-11-17T23:28:53.953Z,3.67
2022-11-17T23:31:20.824Z,2.92
2022-11-17T23:33:48.489Z,1.60
2022-11-17T23:36:17.796Z,2.55
2022-11-17T23:38:44.480Z,2.38
2022-11-17T23:41:13.501Z,4.20
2022-11-17T23:43:40.603Z,3.22
2022-11-17T23:46:15.350Z,3.45
2022-11-17T23:48:42.801Z,2.30
2022-11-17T23:51:17.920Z,3.83
2022-11-17T23:53:46.188Z,1.67
